createdAt,value
2023-05-10T00:01:34.134Z,0.50
2023-05-10T00:04:00.899Z,1.02
2023-05-10T00:06:27.854Z,0.40
2023-05-10T00:08:54.593Z,0.38
2023-05-10T00:11:22.987Z,0.82
2023-05-10T00:13:49.972Z,2.17
2023-05-10T00:16:16.706Z,0.40
2023-05-10T00:18:43.687Z,0.57
2023-05-10T00:21:10.521Z,0.73
2023-05-10T00:23:37.264Z,0.90
2023-05-10T00:26:04.131Z,0.68
2023-05-10T00:28:31.009Z,0.73
2023-05-10T00:30:57.738Z,0.43
2023-05-10T00:33:24.403Z,0.30
2023-05-10T00:35:51.362Z,0.50
2023-05-10T00:38:18.484Z,1.33
2023-05-10T00:40:45.258Z,0.55
2023-05-10T00:43:11.993Z,1.08
2023-05-10T00:45:40.671Z,0.65
2023-05-10T00:48:07.476Z,0.63
2023-05-10T00:50:34.533Z,1.23
2023-05-10T00:53:03.359Z,0.20
2023-05-10T00:55:30.933Z,1.15
2023-05-10T00:57:57.831Z,1.15
2023-05-10T01:00:24.597Z,0.35
2023-05-10T01:02:51.474Z,1.90
2023-05-10T01:05:18.295Z,1.15
2023-05-10T01:07:45.170Z,0.85
2023-05-10T01:10:12.703Z,0.60
2023-05-10T01:12:41.855Z,0.40
2023-05-10T01:15:10.054Z,1.40
2023-05-10T01:17:38.724Z,0.30
2023-05-10T01:20:07.128Z,0.50
2023-05-10T01:22:52.644Z,1.08
2023-05-10T01:25:39.882Z,0.68
2023-05-10T01:28:24.068Z,1.02
2023-05-10T01:31:35.922Z,0.55
2023-05-10T01:34:17.122Z,0.95
2023-05-10T01:36:59.920Z,0.75
2023-05-10T01:39:40.634Z,0.20
2023-05-10T01:42:13.885Z,1.17
2023-05-10T01:44:50.142Z,0.40
2023-05-10T01:47:47.750Z,1.00
2023-05-10T01:50:19.990Z,1.55
2023-05-10T01:52:55.477Z,0.95
2023-05-10T01:55:26.878Z,0.80
2023-05-10T01:58:05.307Z,0.50
2023-05-10T02:00:32.789Z,0.73
2023-05-10T02:03:02.565Z,1.15
2023-05-10T02:05:31.740Z,1.08
2023-05-10T02:08:01.654Z,1.35
2023-05-10T02:10:29.965Z,1.15
2023-05-10T02:13:00.493Z,1.10
2023-05-10T02:15:28.542Z,0.80
2023-05-10T02:18:01.284Z,1.33
2023-05-10T02:20:28.420Z,0.90
2023-05-10T02:22:56.860Z,1.20
2023-05-10T02:25:25.523Z,0.32
2023-05-10T02:27:56.576Z,1.45
2023-05-10T02:30:24.281Z,0.93
2023-05-10T02:32:52.557Z,1.65
2023-05-10T02:35:20.235Z,0.30
2023-05-10T02:37:49.419Z,0.90
2023-05-10T02:40:18.688Z,1.23
2023-05-10T02:42:48.347Z,0.77
2023-05-10T02:45:20.526Z,0.77
2023-05-10T02:47:47.516Z,0.85
2023-05-10T02:50:16.029Z,0.45
2023-05-10T02:52:50.693Z,0.47
2023-05-10T02:55:18.982Z,2.17
2023-05-10T02:58:03.337Z,1.02
2023-05-10T03:00:30.241Z,1.63
2023-05-10T03:02:57.215Z,1.92
2023-05-10T03:05:24.410Z,1.35
2023-05-10T03:07:52.550Z,0.85
2023-05-10T03:10:19.870Z,2.55
2023-05-10T03:13:13.995Z,1.73
2023-05-10T03:16:03.043Z,1.23
2023-05-10T03:18:44.909Z,0.73
2023-05-10T03:21:14.603Z,0.55
2023-05-10T03:23:48.922Z,0.10
2023-05-10T03:26:21.663Z,0.43
2023-05-10T03:28:49.988Z,1.05
2023-05-10T03:31:16.862Z,1.88
2023-05-10T03:33:50.308Z,1.75
2023-05-10T03:36:18.516Z,1.98
2023-05-10T03:38:45.366Z,1.60
2023-05-10T03:41:13.201Z,0.50
2023-05-10T03:43:47.625Z,1.05
2023-05-10T03:46:14.390Z,1.40
2023-05-10T03:48:42.139Z,1.05
2023-05-10T03:51:13.980Z,1.08
2023-05-10T03:53:47.270Z,1.08
2023-05-10T03:56:14.202Z,0.95
2023-05-10T03:58:46.085Z,1.15
2023-05-10T04:01:13.851Z,1.02
2023-05-10T04:03:40.673Z,1.50
2023-05-10T04:06:09.214Z,1.45
2023-05-10T04:08:36.971Z,0.98
2023-05-10T04:11:10.285Z,1.95
2023-05-10T04:13:37.363Z,1.33
2023-05-10T04:16:04.282Z,0.55
2023-05-10T04:18:31.580Z,1.60
2023-05-10T04:20:58.439Z,1.10
2023-05-10T04:23:25.107Z,0.85
2023-05-10T04:25:52.001Z,1.45
2023-05-10T04:28:18.687Z,0.75
2023-05-10T04:30:45.541Z,0.57
2023-05-10T04:33:12.288Z,1.38
2023-05-10T04:35:41.320Z,0.88
2023-05-10T04:38:07.990Z,0.85
2023-05-10T04:40:35.344Z,1.23
2023-05-10T04:43:02.109Z,2.35
2023-05-10T04:45:29.863Z,1.13
2023-05-10T04:47:58.574Z,0.55
2023-05-10T04:50:26.221Z,0.40
2023-05-10T04:52:53.385Z,1.45
2023-05-10T04:55:23.314Z,3.00
2023-05-10T04:57:58.206Z,1.83
2023-05-10T05:00:43.210Z,2.00
2023-05-10T05:03:11.128Z,1.90
2023-05-10T05:05:37.976Z,1.25
2023-05-10T05:08:05.048Z,0.77
2023-05-10T05:10:31.722Z,0.88
2023-05-10T05:13:00.631Z,1.20
2023-05-10T05:15:27.503Z,1.50
2023-05-10T05:17:54.390Z,1.88
2023-05-10T05:20:21.454Z,1.23
2023-05-10T05:22:48.117Z,0.63
2023-05-10T05:25:16.047Z,0.40
2023-05-10T05:27:42.758Z,1.10
2023-05-10T05:30:09.898Z,1.42
2023-05-10T05:32:36.780Z,2.65
2023-05-10T05:35:03.590Z,0.77
2023-05-10T05:37:30.425Z,1.95
2023-05-10T05:39:59.181Z,0.95
2023-05-10T05:42:27.078Z,1.70
2023-05-10T05:44:53.743Z,1.38
2023-05-10T05:47:20.442Z,1.27
2023-05-10T05:49:47.234Z,0.77
2023-05-10T05:52:14.416Z,1.27
2023-05-10T05:54:41.124Z,0.20
2023-05-10T05:57:08.478Z,0.10
2023-05-10T05:59:35.438Z,0.20
2023-05-10T06:02:03.440Z,0.57
2023-05-10T06:04:32.672Z,2.00
2023-05-10T06:06:59.409Z,0.77
2023-05-10T06:09:26.155Z,1.65
2023-05-10T06:11:54.874Z,0.85
2023-05-10T06:14:22.161Z,1.02
2023-05-10T06:16:48.978Z,0.75
2023-05-10T06:19:16.702Z,0.45
2023-05-10T06:21:43.356Z,0.63
2023-05-10T06:24:10.085Z,0.57
2023-05-10T06:26:36.920Z,0.50
2023-05-10T06:29:03.681Z,0.82
2023-05-10T06:31:30.639Z,0.88
2023-05-10T06:33:57.757Z,0.95
2023-05-10T06:36:25.945Z,0.28
2023-05-10T06:38:52.850Z,1.05
2023-05-10T06:41:19.520Z,0.65
2023-05-10T06:43:46.403Z,0.55
2023-05-10T06:46:13.151Z,1.08
2023-05-10T06:48:39.945Z,0.10
2023-05-10T06:51:06.669Z,1.13
2023-05-10T06:53:33.694Z,0.70
2023-05-10T06:56:00.482Z,0.47
2023-05-10T06:58:27.341Z,0.57
2023-05-10T07:00:54.486Z,0.75
2023-05-10T07:03:22.268Z,0.52
2023-05-10T07:05:49.025Z,0.93
2023-05-10T07:08:16.001Z,0.63
2023-05-10T07:10:42.746Z,1.25
2023-05-10T07:13:09.659Z,0.50
2023-05-10T07:15:36.820Z,0.50
2023-05-10T07:18:05.585Z,0.25
2023-05-10T07:20:32.432Z,0.22
2023-05-10T07:23:00.136Z,0.73
2023-05-10T07:25:27.127Z,0.32
2023-05-10T07:27:53.823Z,0.38
2023-05-10T07:30:20.924Z,0.60
2023-05-10T07:32:47.780Z,0.40
2023-05-10T07:35:15.859Z,0.28
2023-05-10T07:37:42.666Z,0.22
2023-05-10T07:40:09.840Z,0.05
2023-05-10T07:42:37.380Z,0.20
2023-05-10T07:45:05.522Z,0.20
2023-05-10T07:47:32.306Z,0.10
2023-05-10T07:50:02.488Z,0.20
2023-05-10T07:52:29.252Z,0.30
2023-05-10T07:54:58.030Z,0.30
2023-05-10T07:57:24.810Z,0.60
2023-05-10T07:59:51.630Z,0.20
2023-05-10T08:02:18.478Z,0.85
2023-05-10T08:04:45.450Z,0.68
2023-05-10T08:07:12.323Z,0.20
2023-05-10T08:09:39.007Z,0.88
2023-05-10T08:12:06.238Z,0.47
2023-05-10T08:14:33.129Z,0.38
2023-05-10T08:16:59.846Z,0.47
2023-05-10T08:19:26.587Z,0.50
2023-05-10T08:21:54.368Z,0.57
2023-05-10T08:24:21.187Z,0.45
2023-05-10T08:26:48.693Z,0.38
2023-05-10T08:29:16.514Z,0.20
2023-05-10T08:31:43.375Z,0.80
2023-05-10T08:34:10.351Z,1.13
2023-05-10T08:36:37.344Z,0.40
2023-05-10T08:39:04.320Z,0.20
2023-05-10T08:41:32.254Z,0.20
2023-05-10T08:44:03.217Z,0.55
2023-05-10T08:46:32.000Z,0.50
2023-05-10T08:49:02.894Z,1.33
2023-05-10T08:51:33.086Z,0.55
2023-05-10T08:54:00.609Z,0.47
2023-05-10T08:56:27.518Z,0.30
2023-05-10T08:58:54.358Z,0.35
2023-05-10T09:01:22.106Z,0.60
2023-05-10T09:03:49.465Z,0.40
2023-05-10T09:06:16.813Z,0.32
2023-05-10T09:08:44.216Z,0.90
2023-05-10T09:11:11.827Z,0.80
2023-05-10T09:13:38.719Z,0.30
2023-05-10T09:16:13.918Z,0.88
2023-05-10T09:18:48.299Z,0.32
2023-05-10T09:21:15.112Z,1.73
2023-05-10T09:23:50.218Z,0.50
2023-05-10T09:26:17.343Z,0.45
2023-05-10T09:29:00.888Z,0.30
2023-05-10T09:31:55.557Z,0.00
2023-05-10T09:34:33.505Z,0.10
2023-05-10T09:37:02.454Z,0.20
2023-05-10T09:39:35.565Z,0.20
2023-05-10T09:42:07.744Z,0.10
2023-05-10T09:44:35.256Z,0.38
2023-05-10T09:47:05.850Z,0.10
2023-05-10T09:49:32.817Z,0.10
2023-05-10T09:52:07.803Z,0.20
2023-05-10T09:54:35.518Z,0.35
2023-05-10T09:57:03.387Z,0.10
2023-05-10T09:59:30.640Z,0.30
2023-05-10T10:01:59.087Z,0.20
2023-05-10T10:04:26.492Z,0.25
2023-05-10T10:07:04.489Z,0.30
2023-05-10T10:09:31.837Z,0.40
2023-05-10T10:11:59.890Z,0.10
2023-05-10T10:14:26.891Z,0.35
2023-05-10T10:17:06.610Z,0.70
2023-05-10T10:19:36.750Z,0.38
2023-05-10T10:22:03.921Z,1.00
2023-05-10T10:24:30.814Z,0.63
2023-05-10T10:27:06.541Z,0.35
2023-05-10T10:29:43.159Z,0.52
2023-05-10T10:32:29.020Z,0.10
2023-05-10T10:34:57.153Z,0.77
2023-05-10T10:37:23.915Z,0.17
2023-05-10T10:39:51.770Z,0.20
2023-05-10T10:42:45.429Z,0.20
2023-05-10T10:45:15.172Z,0.43
2023-05-10T10:47:48.674Z,0.20
2023-05-10T10:50:17.130Z,0.10
2023-05-10T10:52:45.048Z,0.38
2023-05-10T10:55:27.169Z,0.17
2023-05-10T10:58:01.982Z,0.32
2023-05-10T11:00:30.203Z,0.45
2023-05-10T11:03:19.610Z,0.40
2023-05-10T11:05:50.351Z,0.55
2023-05-10T11:08:37.553Z,0.08
2023-05-10T11:11:10.142Z,0.35
2023-05-10T11:13:44.218Z,0.00
2023-05-10T11:16:25.290Z,0.20
2023-05-10T11:19:03.283Z,0.35
2023-05-10T11:21:34.308Z,0.10
2023-05-10T11:24:06.575Z,0.55
2023-05-10T11:26:36.133Z,0.20
2023-05-10T11:29:04.085Z,0.03
2023-05-10T11:31:30.962Z,0.30
2023-05-10T11:33:59.397Z,0.15
2023-05-10T11:36:28.290Z,0.43
2023-05-10T11:38:56.804Z,0.25
2023-05-10T11:41:24.946Z,0.10
2023-05-10T11:43:53.418Z,0.20
2023-05-10T11:46:22.161Z,0.25
2023-05-10T11:48:53.661Z,0.10
2023-05-10T11:51:26.183Z,0.20
2023-05-10T11:53:55.894Z,0.05
2023-05-10T11:56:24.604Z,0.10
2023-05-10T11:58:58.640Z,0.20
2023-05-10T12:01:27.413Z,0.65
2023-05-10T12:04:01.254Z,0.38
2023-05-10T12:06:33.673Z,0.00
2023-05-10T12:09:07.133Z,0.10
2023-05-10T12:11:38.434Z,0.30
2023-05-10T12:14:06.575Z,0.70
2023-05-10T12:16:33.756Z,0.00
2023-05-10T12:19:01.855Z,0.10
2023-05-10T12:21:32.344Z,0.20
2023-05-10T12:26:33.313Z,0.10
2023-05-10T12:29:19.353Z,0.10
2023-05-10T12:31:57.963Z,0.03
2023-05-10T12:34:38.111Z,0.57
2023-05-10T12:37:05.184Z,0.13
2023-05-10T12:39:50.011Z,0.03
2023-05-10T12:42:17.393Z,0.10
2023-05-10T12:44:44.222Z,0.00
2023-05-10T12:47:11.716Z,0.10
2023-05-10T12:49:38.407Z,0.20
2023-05-10T12:52:05.373Z,0.10
2023-05-10T12:54:32.044Z,0.10
2023-05-10T12:56:58.870Z,0.05
2023-05-10T12:59:25.545Z,0.10
2023-05-10T13:01:52.277Z,0.00
2023-05-10T13:04:19.051Z,0.00
2023-05-10T13:06:45.791Z,0.10
2023-05-10T13:09:12.477Z,0.30
2023-05-10T13:11:39.381Z,0.10
2023-05-10T13:14:06.050Z,0.10
2023-05-10T13:16:32.945Z,0.20
2023-05-10T13:18:59.768Z,0.08
2023-05-10T13:21:27.719Z,0.30
2023-05-10T13:23:54.599Z,0.00
2023-05-10T13:26:21.389Z,0.57
2023-05-10T13:28:50.749Z,0.40
2023-05-10T13:31:17.477Z,0.40
2023-05-10T13:33:44.137Z,0.10
2023-05-10T13:36:10.852Z,0.50
2023-05-10T13:38:38.332Z,0.10
2023-05-10T13:41:05.548Z,0.10
2023-05-10T13:43:32.360Z,0.10
2023-05-10T13:45:59.325Z,0.38
2023-05-10T13:48:26.054Z,0.45
2023-05-10T13:50:54.839Z,0.38
2023-05-10T13:53:22.101Z,0.10
2023-05-10T13:55:48.915Z,1.17
2023-05-10T13:58:15.688Z,0.50
2023-05-10T14:00:42.670Z,0.40
2023-05-10T14:03:12.045Z,0.60
2023-05-10T14:05:39.209Z,0.00
2023-05-10T14:08:05.993Z,0.13
2023-05-10T14:10:32.668Z,0.35
2023-05-10T14:12:59.393Z,0.35
2023-05-10T14:15:26.104Z,0.00
2023-05-10T14:17:53.916Z,0.00
2023-05-10T14:20:20.668Z,0.17
2023-05-10T14:22:47.899Z,0.10
2023-05-10T14:25:15.660Z,0.65
2023-05-10T14:27:42.693Z,0.10
2023-05-10T14:30:09.805Z,0.20
2023-05-10T14:32:37.689Z,0.10
2023-05-10T14:35:04.775Z,0.10
2023-05-10T14:37:32.011Z,0.15
2023-05-10T14:39:58.657Z,0.10
2023-05-10T14:42:25.322Z,0.10
2023-05-10T14:44:52.416Z,0.77
2023-05-10T14:47:19.069Z,0.13
2023-05-10T14:49:46.891Z,0.20
2023-05-10T14:52:15.245Z,0.20
2023-05-10T14:54:41.885Z,0.85
2023-05-10T14:57:08.721Z,1.27
2023-05-10T14:59:35.615Z,0.35
2023-05-10T15:02:02.852Z,0.20
2023-05-10T15:04:30.001Z,0.10
2023-05-10T15:07:00.129Z,0.03
2023-05-10T15:09:28.442Z,0.15
2023-05-10T15:11:55.919Z,0.20
2023-05-10T15:14:23.613Z,0.20
2023-05-10T15:16:50.359Z,0.38
2023-05-10T15:19:17.023Z,0.60
2023-05-10T15:21:45.468Z,0.10
2023-05-10T15:24:12.265Z,0.52
2023-05-10T15:26:39.054Z,0.47
2023-05-10T15:29:06.980Z,0.20
2023-05-10T15:31:36.792Z,0.30
2023-05-10T15:34:03.618Z,0.93
2023-05-10T15:36:30.397Z,0.20
2023-05-10T15:38:57.092Z,0.20
2023-05-10T15:41:24.517Z,0.30
2023-05-10T15:43:51.422Z,0.10
2023-05-10T15:46:18.170Z,0.30
2023-05-10T15:48:45.001Z,0.10
2023-05-10T15:51:11.724Z,0.40
2023-05-10T15:53:40.989Z,0.20
2023-05-10T15:56:11.355Z,0.30
2023-05-10T15:58:41.808Z,0.40
2023-05-10T16:01:08.560Z,0.30
2023-05-10T16:03:37.494Z,0.05
2023-05-10T16:06:04.646Z,0.75
2023-05-10T16:08:33.478Z,0.25
2023-05-10T16:11:00.914Z,0.70
2023-05-10T16:13:28.505Z,0.20
2023-05-10T16:15:55.656Z,0.00
2023-05-10T16:18:23.652Z,0.10
2023-05-10T16:20:50.746Z,0.55
2023-05-10T16:23:17.474Z,0.30
2023-05-10T16:25:44.254Z,0.10
2023-05-10T16:28:12.082Z,0.15
2023-05-10T16:30:38.906Z,0.03
2023-05-10T16:33:05.771Z,0.30
2023-05-10T16:35:32.638Z,0.10
2023-05-10T16:37:59.455Z,0.20
2023-05-10T16:40:26.121Z,0.40
2023-05-10T16:42:52.854Z,0.10
2023-05-10T16:45:19.643Z,0.00
2023-05-10T16:47:46.641Z,0.08
2023-05-10T16:50:14.843Z,0.20
2023-05-10T16:52:41.746Z,0.00
2023-05-10T16:55:08.832Z,0.10
2023-05-10T16:57:35.507Z,0.10
2023-05-10T17:00:07.434Z,0.10
2023-05-10T17:02:34.275Z,0.00
2023-05-10T17:05:01.114Z,0.05
2023-05-10T17:07:29.419Z,0.20
2023-05-10T17:09:56.576Z,0.35
2023-05-10T17:12:23.293Z,0.00
2023-05-10T17:14:51.115Z,0.10
2023-05-10T17:17:19.870Z,0.43
2023-05-10T17:19:46.608Z,1.00
2023-05-10T17:22:13.792Z,0.10
2023-05-10T17:24:40.662Z,0.08
2023-05-10T17:27:07.445Z,0.10
2023-05-10T17:29:34.205Z,0.10
2023-05-10T17:32:01.055Z,0.00
2023-05-10T17:34:27.945Z,0.10
2023-05-10T17:36:54.773Z,0.10
2023-05-10T17:39:21.484Z,0.43
2023-05-10T17:41:49.187Z,0.20
2023-05-10T17:44:16.020Z,0.20
2023-05-10T17:46:44.246Z,0.28
2023-05-10T17:49:12.227Z,0.30
2023-05-10T17:51:39.398Z,0.35
2023-05-10T17:54:06.268Z,0.10
2023-05-10T17:56:33.004Z,0.30
2023-05-10T17:58:59.696Z,0.00
2023-05-10T18:01:26.533Z,0.45
2023-05-10T18:03:53.331Z,0.22
2023-05-10T18:06:20.078Z,0.17
2023-05-10T18:08:46.813Z,0.10
2023-05-10T18:11:13.682Z,0.75
2023-05-10T18:13:40.410Z,0.20
2023-05-10T18:16:08.846Z,0.45
2023-05-10T18:18:35.669Z,0.73
2023-05-10T18:21:04.031Z,0.10
2023-05-10T18:23:30.783Z,0.13
2023-05-10T18:25:58.100Z,0.10
2023-05-10T18:28:24.823Z,0.00
2023-05-10T18:30:51.770Z,0.20
2023-05-10T18:33:18.658Z,0.50
2023-05-10T18:35:45.356Z,0.00
2023-05-10T18:38:13.548Z,0.38
2023-05-10T18:40:41.170Z,0.10
2023-05-10T18:43:08.919Z,0.00
2023-05-10T18:45:35.721Z,0.08
2023-05-10T18:48:03.015Z,0.30
2023-05-10T18:50:29.793Z,0.00
2023-05-10T18:52:56.673Z,0.20
2023-05-10T18:55:25.984Z,0.10
2023-05-10T18:57:52.703Z,0.13
2023-05-10T19:00:20.413Z,0.10
2023-05-10T19:02:47.812Z,0.10
2023-05-10T19:05:15.250Z,0.22
2023-05-10T19:07:43.908Z,0.10
2023-05-10T19:10:12.851Z,0.10
2023-05-10T19:12:41.292Z,0.00
2023-05-10T19:15:08.864Z,0.10
2023-05-10T19:17:37.047Z,0.10
2023-05-10T19:20:06.149Z,0.17
2023-05-10T19:22:47.311Z,0.10
2023-05-10T19:25:21.226Z,0.00
2023-05-10T19:27:48.319Z,0.10
2023-05-10T19:30:15.066Z,0.15
2023-05-10T19:32:44.206Z,0.10
2023-05-10T19:35:13.868Z,0.10
2023-05-10T19:40:15.595Z,0.00
2023-05-10T19:42:42.238Z,0.03
2023-05-10T19:45:10.544Z,0.10
2023-05-10T19:47:38.921Z,0.30
2023-05-10T19:50:07.129Z,0.20
2023-05-10T19:52:34.005Z,0.10
2023-05-10T19:55:00.796Z,0.20
2023-05-10T19:57:27.544Z,0.20
2023-05-10T19:59:54.272Z,0.40
2023-05-10T20:02:20.990Z,0.30
2023-05-10T20:04:47.928Z,0.15
2023-05-10T20:07:17.570Z,0.68
2023-05-10T20:09:44.438Z,0.10
2023-05-10T20:12:11.160Z,0.90
2023-05-10T20:14:38.091Z,0.10
2023-05-10T20:17:05.156Z,0.40
2023-05-10T20:19:32.209Z,0.22
2023-05-10T20:21:59.036Z,0.22
2023-05-10T20:24:25.729Z,0.00
2023-05-10T20:26:52.590Z,0.40
2023-05-10T20:29:19.335Z,0.00
2023-05-10T20:31:46.188Z,0.40
2023-05-10T20:34:13.391Z,0.17
2023-05-10T20:36:40.041Z,0.00
2023-05-10T20:39:06.792Z,0.10
2023-05-10T20:41:33.553Z,0.10
2023-05-10T20:44:00.574Z,0.10
2023-05-10T20:46:27.482Z,0.10
2023-05-10T20:48:54.445Z,0.10
2023-05-10T20:51:21.122Z,0.90
2023-05-10T20:53:47.846Z,0.10
2023-05-10T20:56:15.589Z,0.00
2023-05-10T20:58:42.250Z,0.13
2023-05-10T21:01:09.042Z,0.00
2023-05-10T21:03:35.768Z,0.10
2023-05-10T21:06:02.476Z,0.20
2023-05-10T21:08:29.193Z,0.10
2023-05-10T21:10:56.068Z,0.00
2023-05-10T21:13:22.772Z,0.40
2023-05-10T21:15:49.515Z,0.20
2023-05-10T21:18:16.360Z,0.20
2023-05-10T21:20:43.198Z,0.10
2023-05-10T21:23:09.945Z,0.32
2023-05-10T21:25:37.621Z,0.10
2023-05-10T21:28:04.449Z,0.20
2023-05-10T21:30:31.931Z,0.10
2023-05-10T21:32:59.954Z,0.00
2023-05-10T21:35:26.896Z,0.10
2023-05-10T21:37:53.644Z,0.00
2023-05-10T21:40:20.863Z,0.10
2023-05-10T21:42:50.380Z,0.00
2023-05-10T21:45:17.993Z,0.27
2023-05-10T21:47:44.963Z,0.25
2023-05-10T21:50:12.324Z,0.25
2023-05-10T21:52:39.513Z,0.10
2023-05-10T21:55:08.456Z,0.20
2023-05-10T21:57:36.061Z,0.05
2023-05-10T22:00:03.724Z,0.10
2023-05-10T22:02:30.555Z,0.25
2023-05-10T22:04:57.659Z,0.10
2023-05-10T22:07:24.384Z,0.28
2023-05-10T22:09:51.122Z,0.20
2023-05-10T22:12:17.836Z,0.20
2023-05-10T22:14:44.621Z,0.10
2023-05-10T22:17:11.465Z,0.00
2023-05-10T22:19:38.290Z,0.00
2023-05-10T22:22:05.039Z,0.10
2023-05-10T22:24:32.881Z,0.08
2023-05-10T22:26:59.749Z,0.10
2023-05-10T22:29:26.512Z,0.00
2023-05-10T22:31:54.682Z,0.00
2023-05-10T22:34:21.399Z,0.10
2023-05-10T22:36:49.564Z,0.20
2023-05-10T22:39:16.942Z,0.20
2023-05-10T22:41:43.644Z,0.30
2023-05-10T22:44:10.320Z,0.08
2023-05-10T22:46:37.442Z,0.45
2023-05-10T22:49:04.194Z,0.17
2023-05-10T22:51:30.860Z,0.20
2023-05-10T22:53:57.545Z,0.00
2023-05-10T22:56:24.358Z,0.10
2023-05-10T22:58:51.409Z,0.20
2023-05-10T23:01:18.116Z,0.00
2023-05-10T23:03:44.883Z,0.10
2023-05-10T23:06:11.621Z,0.13
2023-05-10T23:08:39.333Z,0.20
2023-05-10T23:11:06.083Z,0.00
2023-05-10T23:13:32.780Z,0.10
2023-05-10T23:16:06.536Z,0.03
2023-05-10T23:18:33.729Z,0.10
2023-05-10T23:21:00.648Z,0.05
2023-05-10T23:23:27.411Z,0.20
2023-05-10T23:25:55.255Z,0.00
2023-05-10T23:28:22.071Z,0.00
2023-05-10T23:30:55.963Z,0.00
2023-05-10T23:33:24.367Z,0.10
2023-05-10T23:35:51.156Z,0.35
2023-05-10T23:38:17.869Z,0.40
2023-05-10T23:40:48.502Z,0.25
2023-05-10T23:43:16.232Z,0.20
2023-05-10T23:45:43.135Z,0.20
2023-05-10T23:48:09.882Z,0.40
2023-05-10T23:50:37.210Z,0.03
2023-05-10T23:53:03.863Z,0.05
2023-05-10T23:55:30.567Z,0.65
2023-05-10T23:57:57.666Z,0.17
